sensor_id;sensor_type;location;lat;lon;timestamp;pressure;altitude;pressure_sealevel;temperature;humidity
73952;BME280;62304;47.662;18.324;2023-06-22T00:00:31;100536.13;;;23.23;71.89
73952;BME280;62304;47.662;18.324;2023-06-22T00:03:34;100529.66;;;23.10;71.80
73952;BME280;62304;47.662;18.324;2023-06-22T00:06:37;100525.72;;;23.20;71.50
73952;BME280;62304;47.662;18.324;2023-06-22T00:09:41;100527.00;;;23.03;71.88
73952;BME280;62304;47.662;18.324;2023-06-22T00:12:44;100528.03;;;22.96;72.08
73952;BME280;62304;47.662;18.324;2023-06-22T00:15:47;100528.41;;;23.11;72.02
73952;BME280;62304;47.662;18.324;2023-06-22T00:18:50;100522.31;;;23.25;70.93
73952;BME280;62304;47.662;18.324;2023-06-22T00:21:52;100517.12;;;23.23;70.80
73952;BME280;62304;47.662;18.324;2023-06-22T00:24:56;100499.19;;;23.14;71.17
73952;BME280;62304;47.662;18.324;2023-06-22T00:27:59;100495.88;;;23.03;71.84
73952;BME280;62304;47.662;18.324;2023-06-22T00:31:02;100494.13;;;23.21;71.41
73952;BME280;62304;47.662;18.324;2023-06-22T00:34:05;100499.84;;;23.05;72.61
73952;BME280;62304;47.662;18.324;2023-06-22T00:37:09;100511.13;;;23.21;72.09
73952;BME280;62304;47.662;18.324;2023-06-22T00:40:14;100510.19;;;23.12;72.42
73952;BME280;62304;47.662;18.324;2023-06-22T00:43:17;100510.50;;;23.14;72.60
73952;BME280;62304;47.662;18.324;2023-06-22T00:46:21;100504.38;;;23.03;73.57
73952;BME280;62304;47.662;18.324;2023-06-22T00:49:25;100493.97;;;23.00;73.36
73952;BME280;62304;47.662;18.324;2023-06-22T00:52:28;100495.78;;;22.94;74.50
73952;BME280;62304;47.662;18.324;2023-06-22T00:55:43;100493.84;;;22.91;74.28
73952;BME280;62304;47.662;18.324;2023-06-22T00:58:48;100485.31;;;22.66;76.72
73952;BME280;62304;47.662;18.324;2023-06-22T01:01:51;100479.84;;;22.59;77.08
73952;BME280;62304;47.662;18.324;2023-06-22T01:04:55;100487.66;;;22.55;77.96
73952;BME280;62304;47.662;18.324;2023-06-22T01:11:30;100495.72;;;22.69;78.82
73952;BME280;62304;47.662;18.324;2023-06-22T01:17:44;100493.81;;;22.78;79.36
73952;BME280;62304;47.662;18.324;2023-06-22T01:20:48;100500.78;;;23.02;78.16
73952;BME280;62304;47.662;18.324;2023-06-22T01:30:31;100495.91;;;22.90;78.80
73952;BME280;62304;47.662;18.324;2023-06-22T01:33:41;100501.91;;;23.05;78.01
73952;BME280;62304;47.662;18.324;2023-06-22T01:36:49;100499.75;;;23.09;77.96
73952;BME280;62304;47.662;18.324;2023-06-22T01:39:54;100495.00;;;23.06;77.29
73952;BME280;62304;47.662;18.324;2023-06-22T01:43:00;100496.00;;;22.99;77.65
73952;BME280;62304;47.662;18.324;2023-06-22T01:46:03;100505.06;;;23.07;77.57
73952;BME280;62304;47.662;18.324;2023-06-22T01:49:07;100505.28;;;23.00;77.24
73952;BME280;62304;47.662;18.324;2023-06-22T01:52:11;100514.28;;;22.70;78.63
73952;BME280;62304;47.662;18.324;2023-06-22T01:55:14;100511.91;;;22.81;77.98
73952;BME280;62304;47.662;18.324;2023-06-22T01:58:20;100519.53;;;22.84;78.28
73952;BME280;62304;47.662;18.324;2023-06-22T02:01:28;100526.38;;;22.70;79.00
73952;BME280;62304;47.662;18.324;2023-06-22T02:08:22;100534.16;;;22.66;79.30
73952;BME280;62304;47.662;18.324;2023-06-22T02:11:27;100549.06;;;22.83;78.65
73952;BME280;62304;47.662;18.324;2023-06-22T02:14:33;100533.62;;;22.71;78.91
73952;BME280;62304;47.662;18.324;2023-06-22T02:17:37;100536.50;;;22.84;78.30
73952;BME280;62304;47.662;18.324;2023-06-22T02:20:41;100543.50;;;22.92;78.00
73952;BME280;62304;47.662;18.324;2023-06-22T02:23:44;100538.56;;;22.96;77.80
73952;BME280;62304;47.662;18.324;2023-06-22T02:26:47;100546.00;;;22.90;77.98
73952;BME280;62304;47.662;18.324;2023-06-22T02:29:50;100548.34;;;22.79;78.81
73952;BME280;62304;47.662;18.324;2023-06-22T02:32:53;100549.16;;;22.79;78.36
73952;BME280;62304;47.662;18.324;2023-06-22T02:36:02;100545.75;;;22.72;78.89
73952;BME280;62304;47.662;18.324;2023-06-22T02:39:07;100542.81;;;22.75;78.80
73952;BME280;62304;47.662;18.324;2023-06-22T02:42:11;100542.63;;;22.54;79.42
73952;BME280;62304;47.662;18.324;2023-06-22T02:45:14;100549.50;;;22.53;79.47
73952;BME280;62304;47.662;18.324;2023-06-22T02:48:18;100546.88;;;22.46;80.05
73952;BME280;62304;47.662;18.324;2023-06-22T02:51:21;100547.22;;;22.48;79.78
73952;BME280;62304;47.662;18.324;2023-06-22T02:54:24;100538.31;;;22.33;80.19
73952;BME280;62304;47.662;18.324;2023-06-22T02:57:27;100539.13;;;22.18;81.14
73952;BME280;62304;47.662;18.324;2023-06-22T03:00:31;100537.56;;;22.17;82.13
73952;BME280;62304;47.662;18.324;2023-06-22T03:03:34;100532.34;;;22.15;82.27
73952;BME280;62304;47.662;18.324;2023-06-22T03:06:38;100541.44;;;22.07;82.04
73952;BME280;62304;47.662;18.324;2023-06-22T03:09:43;100533.59;;;21.98;82.33
73952;BME280;62304;47.662;18.324;2023-06-22T03:12:46;100526.28;;;21.85;83.38
73952;BME280;62304;47.662;18.324;2023-06-22T03:15:50;100524.69;;;21.84;84.09
73952;BME280;62304;47.662;18.324;2023-06-22T03:18:53;100518.63;;;21.69;85.24
73952;BME280;62304;47.662;18.324;2023-06-22T03:21:57;100527.34;;;21.75;85.05
73952;BME280;62304;47.662;18.324;2023-06-22T03:25:00;100529.44;;;21.71;85.46
73952;BME280;62304;47.662;18.324;2023-06-22T03:28:03;100526.62;;;21.71;85.62
73952;BME280;62304;47.662;18.324;2023-06-22T03:31:06;100524.94;;;21.73;85.12
73952;BME280;62304;47.662;18.324;2023-06-22T03:34:10;100524.69;;;21.68;85.33
73952;BME280;62304;47.662;18.324;2023-06-22T03:37:14;100535.47;;;21.73;84.98
73952;BME280;62304;47.662;18.324;2023-06-22T03:40:17;100536.84;;;21.65;85.71
73952;BME280;62304;47.662;18.324;2023-06-22T03:43:20;100540.12;;;21.63;85.71
73952;BME280;62304;47.662;18.324;2023-06-22T03:46:23;100542.66;;;21.58;86.65
73952;BME280;62304;47.662;18.324;2023-06-22T03:49:26;100534.53;;;21.60;86.23
73952;BME280;62304;47.662;18.324;2023-06-22T03:52:29;100542.66;;;21.58;86.12
73952;BME280;62304;47.662;18.324;2023-06-22T03:55:34;100539.84;;;21.58;86.64
73952;BME280;62304;47.662;18.324;2023-06-22T03:58:37;100537.00;;;21.58;86.80
73952;BME280;62304;47.662;18.324;2023-06-22T04:01:46;100536.69;;;21.56;86.42
73952;BME280;62304;47.662;18.324;2023-06-22T04:04:49;100531.56;;;21.67;86.33
73952;BME280;62304;47.662;18.324;2023-06-22T04:07:52;100530.25;;;21.71;86.30
73952;BME280;62304;47.662;18.324;2023-06-22T04:10:55;100539.06;;;21.73;85.86
73952;BME280;62304;47.662;18.324;2023-06-22T04:13:58;100548.97;;;21.81;85.65
73952;BME280;62304;47.662;18.324;2023-06-22T04:17:01;100552.56;;;21.82;85.79
73952;BME280;62304;47.662;18.324;2023-06-22T04:20:04;100554.19;;;21.83;85.94
73952;BME280;62304;47.662;18.324;2023-06-22T04:23:08;100562.03;;;21.91;85.76
73952;BME280;62304;47.662;18.324;2023-06-22T04:26:10;100567.22;;;21.93;85.71
73952;BME280;62304;47.662;18.324;2023-06-22T04:29:14;100565.47;;;21.83;86.27
73952;BME280;62304;47.662;18.324;2023-06-22T04:32:17;100567.06;;;21.84;86.48
73952;BME280;62304;47.662;18.324;2023-06-22T04:35:21;100558.31;;;21.94;85.87
73952;BME280;62304;47.662;18.324;2023-06-22T04:38:25;100572.97;;;21.89;85.62
73952;BME280;62304;47.662;18.324;2023-06-22T04:41:28;100574.12;;;21.92;85.80
73952;BME280;62304;47.662;18.324;2023-06-22T04:44:30;100570.75;;;21.97;85.30
73952;BME280;62304;47.662;18.324;2023-06-22T04:47:34;100578.38;;;22.00;85.32
73952;BME280;62304;47.662;18.324;2023-06-22T04:50:37;100564.91;;;22.20;84.66
73952;BME280;62304;47.662;18.324;2023-06-22T04:53:41;100573.56;;;22.29;84.00
73952;BME280;62304;47.662;18.324;2023-06-22T04:56:44;100567.91;;;22.29;84.30
73952;BME280;62304;47.662;18.324;2023-06-22T04:59:49;100562.25;;;22.29;83.93
73952;BME280;62304;47.662;18.324;2023-06-22T05:02:52;100573.13;;;22.46;83.63
73952;BME280;62304;47.662;18.324;2023-06-22T05:06:05;100574.91;;;22.69;82.87
73952;BME280;62304;47.662;18.324;2023-06-22T05:09:08;100578.53;;;22.69;80.71
73952;BME280;62304;47.662;18.324;2023-06-22T05:12:12;100583.09;;;22.79;80.81
73952;BME280;62304;47.662;18.324;2023-06-22T05:15:15;100582.56;;;22.97;81.17
73952;BME280;62304;47.662;18.324;2023-06-22T05:18:18;100581.03;;;23.08;80.73
73952;BME280;62304;47.662;18.324;2023-06-22T05:21:26;100576.09;;;23.25;80.23
73952;BME280;62304;47.662;18.324;2023-06-22T05:24:30;100582.78;;;23.31;79.65
73952;BME280;62304;47.662;18.324;2023-06-22T05:27:32;100584.97;;;23.52;79.23
73952;BME280;62304;47.662;18.324;2023-06-22T05:30:36;100580.91;;;23.90;77.74
73952;BME280;62304;47.662;18.324;2023-06-22T05:33:40;100589.09;;;24.35;75.85
73952;BME280;62304;47.662;18.324;2023-06-22T05:36:43;100588.12;;;24.63;74.30
73952;BME280;62304;47.662;18.324;2023-06-22T05:39:46;100593.22;;;25.11;71.46
73952;BME280;62304;47.662;18.324;2023-06-22T05:42:49;100597.94;;;25.26;69.36
73952;BME280;62304;47.662;18.324;2023-06-22T05:45:52;100591.84;;;25.37;70.60
73952;BME280;62304;47.662;18.324;2023-06-22T05:48:56;100589.31;;;25.39;68.23
73952;BME280;62304;47.662;18.324;2023-06-22T05:52:03;100595.12;;;25.57;68.77
73952;BME280;62304;47.662;18.324;2023-06-22T05:55:07;100588.25;;;25.76;67.14
73952;BME280;62304;47.662;18.324;2023-06-22T05:58:10;100588.78;;;25.92;64.27
73952;BME280;62304;47.662;18.324;2023-06-22T06:01:15;100589.37;;;26.18;65.34
73952;BME280;62304;47.662;18.324;2023-06-22T06:04:26;100590.06;;;26.58;64.41
73952;BME280;62304;47.662;18.324;2023-06-22T06:07:30;100591.97;;;26.70;64.17
73952;BME280;62304;47.662;18.324;2023-06-22T06:10:37;100582.31;;;26.67;65.60
73952;BME280;62304;47.662;18.324;2023-06-22T06:13:40;100577.22;;;27.07;63.48
73952;BME280;62304;47.662;18.324;2023-06-22T06:16:43;100584.34;;;27.30;63.64
73952;BME280;62304;47.662;18.324;2023-06-22T06:19:46;100582.59;;;27.83;62.22
73952;BME280;62304;47.662;18.324;2023-06-22T06:22:49;100587.13;;;28.22;59.72
73952;BME280;62304;47.662;18.324;2023-06-22T06:25:52;100586.53;;;28.18;59.12
73952;BME280;62304;47.662;18.324;2023-06-22T06:28:56;100584.88;;;28.02;58.36
73952;BME280;62304;47.662;18.324;2023-06-22T06:32:00;100587.47;;;28.15;57.35
73952;BME280;62304;47.662;18.324;2023-06-22T06:35:05;100589.09;;;28.39;58.38
73952;BME280;62304;47.662;18.324;2023-06-22T06:38:08;100584.22;;;28.31;56.95
73952;BME280;62304;47.662;18.324;2023-06-22T06:41:11;100578.03;;;28.56;56.66
73952;BME280;62304;47.662;18.324;2023-06-22T06:44:14;100583.63;;;28.27;57.21
73952;BME280;62304;47.662;18.324;2023-06-22T06:47:17;100576.53;;;28.46;55.98
73952;BME280;62304;47.662;18.324;2023-06-22T06:50:21;100580.69;;;28.83;54.61
73952;BME280;62304;47.662;18.324;2023-06-22T06:53:24;100577.00;;;28.44;55.01
73952;BME280;62304;47.662;18.324;2023-06-22T06:56:27;100576.03;;;28.71;56.01
73952;BME280;62304;47.662;18.324;2023-06-22T06:59:30;100581.31;;;29.01;54.95
73952;BME280;62304;47.662;18.324;2023-06-22T07:02:33;100588.41;;;29.35;52.59
73952;BME280;62304;47.662;18.324;2023-06-22T07:05:37;100588.50;;;29.84;52.13
73952;BME280;62304;47.662;18.324;2023-06-22T07:08:40;100579.56;;;29.18;51.32
73952;BME280;62304;47.662;18.324;2023-06-22T07:11:43;100586.41;;;29.99;50.70
73952;BME280;62304;47.662;18.324;2023-06-22T07:14:46;100583.69;;;30.44;49.50
73952;BME280;62304;47.662;18.324;2023-06-22T07:17:49;100584.41;;;30.39;50.12
73952;BME280;62304;47.662;18.324;2023-06-22T07:20:52;100581.41;;;30.28;51.12
73952;BME280;62304;47.662;18.324;2023-06-22T07:23:55;100578.88;;;30.56;50.42
73952;BME280;62304;47.662;18.324;2023-06-22T07:26:59;100566.28;;;30.88;48.67
73952;BME280;62304;47.662;18.324;2023-06-22T07:30:04;100558.63;;;30.79;50.12
73952;BME280;62304;47.662;18.324;2023-06-22T07:33:07;100564.94;;;30.83;49.68
73952;BME280;62304;47.662;18.324;2023-06-22T07:36:11;100556.63;;;30.85;48.44
73952;BME280;62304;47.662;18.324;2023-06-22T07:39:14;100557.91;;;30.64;49.02
73952;BME280;62304;47.662;18.324;2023-06-22T07:42:17;100551.34;;;30.78;48.10
73952;BME280;62304;47.662;18.324;2023-06-22T07:45:21;100554.84;;;30.48;50.36
73952;BME280;62304;47.662;18.324;2023-06-22T07:48:24;100539.88;;;30.78;50.10
73952;BME280;62304;47.662;18.324;2023-06-22T07:51:27;100539.50;;;31.16;49.02
73952;BME280;62304;47.662;18.324;2023-06-22T07:54:30;100538.00;;;31.21;47.58
73952;BME280;62304;47.662;18.324;2023-06-22T07:57:33;100534.41;;;31.57;47.32
73952;BME280;62304;47.662;18.324;2023-06-22T08:00:37;100533.38;;;31.29;47.00
73952;BME280;62304;47.662;18.324;2023-06-22T08:03:40;100536.72;;;31.53;46.57
73952;BME280;62304;47.662;18.324;2023-06-22T08:06:43;100533.44;;;31.71;48.74
73952;BME280;62304;47.662;18.324;2023-06-22T08:09:47;100530.66;;;31.45;44.55
73952;BME280;62304;47.662;18.324;2023-06-22T08:12:51;100524.91;;;31.45;46.44
73952;BME280;62304;47.662;18.324;2023-06-22T08:15:55;100529.53;;;31.37;48.03
73952;BME280;62304;47.662;18.324;2023-06-22T08:18:58;100534.69;;;31.95;45.96
73952;BME280;62304;47.662;18.324;2023-06-22T08:22:01;100524.66;;;31.43;42.51
73952;BME280;62304;47.662;18.324;2023-06-22T08:25:04;100532.97;;;31.72;43.17
73952;BME280;62304;47.662;18.324;2023-06-22T08:28:07;100528.87;;;31.84;42.57
73952;BME280;62304;47.662;18.324;2023-06-22T08:31:10;100537.59;;;32.01;42.15
73952;BME280;62304;47.662;18.324;2023-06-22T08:34:15;100535.00;;;32.03;42.30
73952;BME280;62304;47.662;18.324;2023-06-22T08:37:19;100532.84;;;32.34;40.97
73952;BME280;62304;47.662;18.324;2023-06-22T08:40:23;100526.06;;;32.37;42.82
73952;BME280;62304;47.662;18.324;2023-06-22T08:43:26;100525.94;;;32.74;41.39
73952;BME280;62304;47.662;18.324;2023-06-22T08:46:29;100513.09;;;32.69;41.69
73952;BME280;62304;47.662;18.324;2023-06-22T08:49:34;100517.69;;;33.03;42.60
73952;BME280;62304;47.662;18.324;2023-06-22T08:52:38;100514.81;;;33.20;41.63
73952;BME280;62304;47.662;18.324;2023-06-22T08:55:43;100521.13;;;33.35;41.67
73952;BME280;62304;47.662;18.324;2023-06-22T08:58:48;100523.69;;;33.11;41.69
73952;BME280;62304;47.662;18.324;2023-06-22T09:01:50;100512.84;;;32.62;42.10
73952;BME280;62304;47.662;18.324;2023-06-22T09:04:53;100504.06;;;33.04;42.33
73952;BME280;62304;47.662;18.324;2023-06-22T09:07:58;100500.41;;;32.98;41.89
73952;BME280;62304;47.662;18.324;2023-06-22T09:11:01;100502.53;;;33.19;40.50
73952;BME280;62304;47.662;18.324;2023-06-22T09:14:04;100499.13;;;33.54;40.84
73952;BME280;62304;47.662;18.324;2023-06-22T09:17:07;100496.25;;;33.65;40.85
73952;BME280;62304;47.662;18.324;2023-06-22T09:20:10;100491.78;;;33.91;41.75
73952;BME280;62304;47.662;18.324;2023-06-22T09:23:14;100496.22;;;33.87;39.48
73952;BME280;62304;47.662;18.324;2023-06-22T09:26:18;100499.88;;;33.93;39.43
73952;BME280;62304;47.662;18.324;2023-06-22T09:29:21;100489.44;;;33.90;38.43
73952;BME280;62304;47.662;18.324;2023-06-22T09:32:24;100489.31;;;34.23;39.03
73952;BME280;62304;47.662;18.324;2023-06-22T09:35:28;100486.88;;;34.43;38.45
73952;BME280;62304;47.662;18.324;2023-06-22T09:38:31;100486.88;;;34.43;36.45
73952;BME280;62304;47.662;18.324;2023-06-22T09:41:34;100481.47;;;34.29;38.72
73952;BME280;62304;47.662;18.324;2023-06-22T09:44:37;100477.63;;;34.61;37.77
73952;BME280;62304;47.662;18.324;2023-06-22T09:47:40;100473.75;;;34.48;37.65
73952;BME280;62304;47.662;18.324;2023-06-22T09:50:44;100478.00;;;34.41;38.53
73952;BME280;62304;47.662;18.324;2023-06-22T09:53:47;100484.06;;;34.84;36.75
73952;BME280;62304;47.662;18.324;2023-06-22T09:56:50;100475.56;;;34.97;36.66
73952;BME280;62304;47.662;18.324;2023-06-22T09:59:53;100483.88;;;34.71;37.26
73952;BME280;62304;47.662;18.324;2023-06-22T10:02:57;100481.81;;;33.76;38.46
73952;BME280;62304;47.662;18.324;2023-06-22T10:06:03;100472.53;;;34.38;37.21
73952;BME280;62304;47.662;18.324;2023-06-22T10:09:07;100469.88;;;34.40;37.40
73952;BME280;62304;47.662;18.324;2023-06-22T10:12:11;100467.50;;;34.90;36.76
73952;BME280;62304;47.662;18.324;2023-06-22T10:15:14;100464.59;;;35.54;36.73
73952;BME280;62304;47.662;18.324;2023-06-22T10:18:18;100472.03;;;35.74;36.85
73952;BME280;62304;47.662;18.324;2023-06-22T10:21:21;100466.41;;;35.87;33.62
73952;BME280;62304;47.662;18.324;2023-06-22T10:24:24;100456.12;;;35.91;33.18
73952;BME280;62304;47.662;18.324;2023-06-22T10:27:28;100458.72;;;35.71;34.36
73952;BME280;62304;47.662;18.324;2023-06-22T10:30:31;100459.97;;;35.46;35.28
73952;BME280;62304;47.662;18.324;2023-06-22T10:33:34;100460.69;;;35.52;34.89
73952;BME280;62304;47.662;18.324;2023-06-22T10:36:37;100463.34;;;35.50;35.15
73952;BME280;62304;47.662;18.324;2023-06-22T10:39:41;100459.56;;;35.60;36.55
73952;BME280;62304;47.662;18.324;2023-06-22T10:42:44;100457.03;;;35.81;35.50
73952;BME280;62304;47.662;18.324;2023-06-22T10:45:47;100454.16;;;35.81;35.49
73952;BME280;62304;47.662;18.324;2023-06-22T10:48:50;100448.94;;;36.22;35.59
73952;BME280;62304;47.662;18.324;2023-06-22T10:51:53;100454.47;;;35.96;34.69
73952;BME280;62304;47.662;18.324;2023-06-22T10:54:56;100443.41;;;36.00;34.83
73952;BME280;62304;47.662;18.324;2023-06-22T10:58:00;100443.87;;;35.56;34.79
73952;BME280;62304;47.662;18.324;2023-06-22T11:01:03;100439.84;;;35.05;35.80
73952;BME280;62304;47.662;18.324;2023-06-22T11:04:07;100445.59;;;35.94;34.69
73952;BME280;62304;47.662;18.324;2023-06-22T11:07:10;100426.16;;;36.13;33.81
73952;BME280;62304;47.662;18.324;2023-06-22T11:10:13;100425.59;;;36.20;34.17
73952;BME280;62304;47.662;18.324;2023-06-22T11:13:16;100428.09;;;36.47;33.66
73952;BME280;62304;47.662;18.324;2023-06-22T11:16:19;100424.41;;;35.62;34.48
73952;BME280;62304;47.662;18.324;2023-06-22T11:19:22;100420.88;;;35.74;34.62
73952;BME280;62304;47.662;18.324;2023-06-22T11:22:25;100416.78;;;36.31;33.56
73952;BME280;62304;47.662;18.324;2023-06-22T11:25:28;100412.88;;;36.47;33.34
73952;BME280;62304;47.662;18.324;2023-06-22T11:28:31;100404.97;;;37.16;32.92
73952;BME280;62304;47.662;18.324;2023-06-22T11:31:35;100399.44;;;37.31;32.77
73952;BME280;62304;47.662;18.324;2023-06-22T11:34:38;100403.25;;;37.52;32.65
73952;BME280;62304;47.662;18.324;2023-06-22T11:37:41;100407.66;;;37.40;31.64
73952;BME280;62304;47.662;18.324;2023-06-22T11:40:47;100404.97;;;37.16;31.97
73952;BME280;62304;47.662;18.324;2023-06-22T11:43:50;100392.69;;;37.10;31.50
73952;BME280;62304;47.662;18.324;2023-06-22T11:46:53;100388.75;;;36.02;33.16
73952;BME280;62304;47.662;18.324;2023-06-22T11:49:56;100407.16;;;36.41;32.21
73952;BME280;62304;47.662;18.324;2023-06-22T11:52:58;100394.13;;;36.35;33.17
73952;BME280;62304;47.662;18.324;2023-06-22T11:56:02;100396.31;;;36.66;32.64
73952;BME280;62304;47.662;18.324;2023-06-22T11:59:04;100390.00;;;35.40;33.99
73952;BME280;62304;47.662;18.324;2023-06-22T12:02:08;100385.47;;;35.92;33.55
73952;BME280;62304;47.662;18.324;2023-06-22T12:05:12;100384.47;;;35.66;33.93
73952;BME280;62304;47.662;18.324;2023-06-22T12:08:15;100384.09;;;36.73;32.88
73952;BME280;62304;47.662;18.324;2023-06-22T12:11:18;100383.97;;;36.47;33.12
73952;BME280;62304;47.662;18.324;2023-06-22T12:14:21;100381.03;;;35.91;33.82
73952;BME280;62304;47.662;18.324;2023-06-22T12:17:24;100370.84;;;36.27;34.10
73952;BME280;62304;47.662;18.324;2023-06-22T12:20:27;100373.13;;;36.34;34.62
73952;BME280;62304;47.662;18.324;2023-06-22T12:23:30;100365.87;;;36.59;34.25
73952;BME280;62304;47.662;18.324;2023-06-22T12:26:33;100359.88;;;36.76;33.00
73952;BME280;62304;47.662;18.324;2023-06-22T12:29:36;100359.41;;;36.72;33.47
73952;BME280;62304;47.662;18.324;2023-06-22T12:32:39;100358.00;;;36.60;33.24
73952;BME280;62304;47.662;18.324;2023-06-22T12:35:43;100369.00;;;35.87;32.83
73952;BME280;62304;47.662;18.324;2023-06-22T12:38:47;100363.53;;;35.84;34.35
73952;BME280;62304;47.662;18.324;2023-06-22T12:41:50;100361.50;;;36.71;32.96
73952;BME280;62304;47.662;18.324;2023-06-22T12:44:53;100360.34;;;36.80;32.69
73952;BME280;62304;47.662;18.324;2023-06-22T12:47:57;100356.31;;;36.70;33.35
73952;BME280;62304;47.662;18.324;2023-06-22T12:51:00;100354.50;;;35.50;34.39
73952;BME280;62304;47.662;18.324;2023-06-22T12:54:03;100357.06;;;36.52;34.09
73952;BME280;62304;47.662;18.324;2023-06-22T12:57:07;100351.09;;;36.31;33.44
73952;BME280;62304;47.662;18.324;2023-06-22T13:00:11;100347.97;;;36.29;33.79
73952;BME280;62304;47.662;18.324;2023-06-22T13:03:14;100357.09;;;35.96;34.62
73952;BME280;62304;47.662;18.324;2023-06-22T13:06:17;100358.59;;;36.03;35.43
73952;BME280;62304;47.662;18.324;2023-06-22T13:09:20;100341.72;;;36.25;34.46
73952;BME280;62304;47.662;18.324;2023-06-22T13:12:23;100343.09;;;35.82;35.19
73952;BME280;62304;47.662;18.324;2023-06-22T13:15:28;100336.81;;;36.20;34.78
73952;BME280;62304;47.662;18.324;2023-06-22T13:18:32;100325.75;;;36.56;35.28
73952;BME280;62304;47.662;18.324;2023-06-22T13:21:36;100324.50;;;36.20;36.31
73952;BME280;62304;47.662;18.324;2023-06-22T13:24:39;100325.25;;;36.20;36.37
73952;BME280;62304;47.662;18.324;2023-06-22T13:27:42;100326.09;;;36.34;36.29
73952;BME280;62304;47.662;18.324;2023-06-22T13:30:45;100333.53;;;36.29;36.02
73952;BME280;62304;47.662;18.324;2023-06-22T13:33:49;100324.53;;;36.33;35.73
73952;BME280;62304;47.662;18.324;2023-06-22T13:36:55;100321.87;;;35.79;36.18
73952;BME280;62304;47.662;18.324;2023-06-22T13:39:57;100324.00;;;35.31;36.88
73952;BME280;62304;47.662;18.324;2023-06-22T13:43:02;100309.78;;;35.81;36.42
73952;BME280;62304;47.662;18.324;2023-06-22T13:46:05;100309.66;;;35.68;36.74
73952;BME280;62304;47.662;18.324;2023-06-22T13:49:08;100314.63;;;35.25;37.23
73952;BME280;62304;47.662;18.324;2023-06-22T13:52:11;100297.31;;;35.25;38.29
73952;BME280;62304;47.662;18.324;2023-06-22T13:55:15;100310.44;;;35.26;38.19
73952;BME280;62304;47.662;18.324;2023-06-22T13:58:18;100302.91;;;34.58;39.52
73952;BME280;62304;47.662;18.324;2023-06-22T14:01:22;100302.50;;;35.32;38.37
73952;BME280;62304;47.662;18.324;2023-06-22T14:04:25;100306.38;;;35.10;38.75
73952;BME280;62304;47.662;18.324;2023-06-22T14:07:29;100299.28;;;35.59;37.43
73952;BME280;62304;47.662;18.324;2023-06-22T14:10:32;100286.22;;;35.34;38.96
73952;BME280;62304;47.662;18.324;2023-06-22T14:13:35;100298.94;;;35.44;38.38
73952;BME280;62304;47.662;18.324;2023-06-22T14:16:38;100291.41;;;35.12;39.30
73952;BME280;62304;47.662;18.324;2023-06-22T14:19:41;100293.75;;;34.89;39.77
73952;BME280;62304;47.662;18.324;2023-06-22T14:22:44;100295.31;;;34.61;39.85
73952;BME280;62304;47.662;18.324;2023-06-22T14:25:47;100295.00;;;34.35;39.91
73952;BME280;62304;47.662;18.324;2023-06-22T14:28:50;100292.47;;;34.55;39.60
73952;BME280;62304;47.662;18.324;2023-06-22T14:31:53;100287.69;;;34.63;39.70
73952;BME280;62304;47.662;18.324;2023-06-22T14:34:56;100291.94;;;34.57;39.72
73952;BME280;62304;47.662;18.324;2023-06-22T14:38:18;100295.97;;;34.02;40.59
73952;BME280;62304;47.662;18.324;2023-06-22T14:41:22;100281.16;;;34.28;40.84
73952;BME280;62304;47.662;18.324;2023-06-22T14:44:24;100274.09;;;34.29;40.99
73952;BME280;62304;47.662;18.324;2023-06-22T14:47:27;100266.19;;;34.35;40.97
73952;BME280;62304;47.662;18.324;2023-06-22T14:50:31;100272.25;;;34.31;40.86
73952;BME280;62304;47.662;18.324;2023-06-22T14:53:34;100266.78;;;34.28;40.87
73952;BME280;62304;47.662;18.324;2023-06-22T14:56:37;100273.09;;;33.80;42.10
73952;BME280;62304;47.662;18.324;2023-06-22T14:59:40;100279.59;;;33.81;42.41
73952;BME280;62304;47.662;18.324;2023-06-22T15:02:43;100268.53;;;33.96;41.71
73952;BME280;62304;47.662;18.324;2023-06-22T15:05:46;100269.59;;;33.93;41.15
73952;BME280;62304;47.662;18.324;2023-06-22T15:08:49;100262.44;;;33.59;41.43
73952;BME280;62304;47.662;18.324;2023-06-22T15:11:52;100257.31;;;33.35;43.29
73952;BME280;62304;47.662;18.324;2023-06-22T15:14:55;100261.84;;;33.03;43.11
73952;BME280;62304;47.662;18.324;2023-06-22T15:17:58;100257.37;;;33.02;43.33
73952;BME280;62304;47.662;18.324;2023-06-22T15:21:01;100252.47;;;32.86;44.16
73952;BME280;62304;47.662;18.324;2023-06-22T15:24:05;100253.53;;;32.83;43.84
73952;BME280;62304;47.662;18.324;2023-06-22T15:27:08;100251.91;;;32.99;43.76
73952;BME280;62304;47.662;18.324;2023-06-22T15:30:11;100250.06;;;33.01;44.17
73952;BME280;62304;47.662;18.324;2023-06-22T15:33:14;100242.25;;;33.02;44.02
73952;BME280;62304;47.662;18.324;2023-06-22T15:36:18;100243.87;;;32.86;44.64
73952;BME280;62304;47.662;18.324;2023-06-22T15:39:21;100238.09;;;32.92;44.46
73952;BME280;62304;47.662;18.324;2023-06-22T15:42:25;100239.16;;;32.67;45.09
73952;BME280;62304;47.662;18.324;2023-06-22T15:45:28;100240.75;;;32.46;45.54
73952;BME280;62304;47.662;18.324;2023-06-22T15:48:31;100238.94;;;32.48;45.44
73952;BME280;62304;47.662;18.324;2023-06-22T15:51:34;100236.81;;;32.54;45.85
73952;BME280;62304;47.662;18.324;2023-06-22T15:54:37;100244.63;;;32.21;45.74
73952;BME280;62304;47.662;18.324;2023-06-22T15:57:40;100240.69;;;32.07;46.20
73952;BME280;62304;47.662;18.324;2023-06-22T16:00:43;100243.56;;;32.18;46.51
73952;BME280;62304;47.662;18.324;2023-06-22T16:03:51;100237.06;;;32.07;46.80